createdAt,value
2023-04-23T00:04:58.123Z,2.9
2023-04-23T00:10:49.974Z,2.8
2023-04-23T00:16:42.002Z,2.8
2023-04-23T00:22:33.036Z,2.8
2023-04-23T00:28:24.035Z,2.6
2023-04-23T00:34:15.743Z,2.6
2023-04-23T00:39:51.580Z,2.6
2023-04-23T00:45:42.781Z,2.5
2023-04-23T00:51:34.893Z,2.5
2023-04-23T00:57:26.317Z,2.4
2023-04-23T01:03:17.685Z,2.3
2023-04-23T01:09:09.921Z,2.3
2023-04-23T01:15:01.150Z,2.2
2023-04-23T01:20:36.975Z,2.1
2023-04-23T01:26:28.512Z,2.2
2023-04-23T01:32:20.184Z,2.2
2023-04-23T01:38:11.870Z,2.3
2023-04-23T01:44:03.227Z,2.2
2023-04-23T01:49:57.591Z,2.3
2023-04-23T01:55:48.668Z,2.3
2023-04-23T02:01:23.934Z,2.2
2023-04-23T02:07:17.283Z,2.2
2023-04-23T02:13:08.922Z,2.1
2023-04-23T02:19:01.192Z,2.1
2023-04-23T02:24:53.274Z,1.9
2023-04-23T02:30:44.843Z,1.9
2023-04-23T02:36:36.604Z,1.8
2023-04-23T02:42:27.920Z,1.8
2023-04-23T02:48:19.215Z,1.6
2023-04-23T02:54:10.578Z,1.5
2023-04-23T03:00:02.588Z,1.4
2023-04-23T03:05:55.958Z,1.4
2023-04-23T03:11:31.803Z,1.3
2023-04-23T03:17:23.619Z,1.2
2023-04-23T03:23:14.977Z,1.2
2023-04-23T03:29:08.093Z,1.1
2023-04-23T03:35:00.155Z,1.1
2023-04-23T03:40:51.366Z,1.1
2023-04-23T03:46:27.753Z,1.2
2023-04-23T03:52:03.946Z,1.3
2023-04-23T03:57:39.768Z,1.4
2023-04-23T04:03:31.527Z,1.6
2023-04-23T04:09:25.942Z,1.9
2023-04-23T04:15:17.569Z,2.1
2023-04-23T04:21:10.985Z,2.3
2023-04-23T04:27:01.864Z,2.7
2023-04-23T04:32:53.270Z,3.1
2023-04-23T04:38:45.017Z,3.8
2023-04-23T04:44:36.588Z,5.2
2023-04-23T04:50:28.710Z,7.2
2023-04-23T04:56:19.847Z,9.3
2023-04-23T05:01:56.037Z,11.3
2023-04-23T05:07:49.039Z,13.2
2023-04-23T05:13:42.420Z,15.3
2023-04-23T05:19:34.082Z,17.4
2023-04-23T05:25:25.892Z,19.9
2023-04-23T05:31:17.622Z,22.9
2023-04-23T05:37:15.500Z,25.9
2023-04-23T05:43:08.606Z,28.5
2023-04-23T05:49:00.924Z,31.4
2023-04-23T05:54:54.480Z,34.6
2023-04-23T06:00:45.747Z,37.8
2023-04-23T06:06:27.021Z,40.9
2023-04-23T06:12:20.229Z,43.9
2023-04-23T06:18:13.733Z,46.9
2023-04-23T06:24:05.043Z,47.5
2023-04-23T06:29:56.581Z,48.6
2023-04-23T06:35:59.097Z,51.8
2023-04-23T06:41:50.598Z,50.1
2023-04-23T06:47:42.611Z,38.2
2023-04-23T06:53:34.653Z,39.8
2023-04-23T06:59:27.896Z,48.9
2023-04-23T07:05:21.164Z,42
2023-04-23T07:11:12.298Z,39.3
2023-04-23T07:17:03.687Z,40.6
2023-04-23T07:22:55.225Z,41.5
2023-04-23T07:28:46.109Z,42.6
2023-04-23T07:34:38.137Z,43.3
2023-04-23T07:40:31.968Z,43.8
2023-04-23T07:46:23.438Z,45.1
2023-04-23T07:52:00.814Z,46.2
2023-04-23T07:57:54.902Z,46.6
2023-04-23T08:03:47.264Z,47.9
2023-04-23T08:09:40.636Z,49
2023-04-23T08:15:32.342Z,50.3
2023-04-23T08:21:39.658Z,51.6
2023-04-23T08:27:31.276Z,48.1
2023-04-23T08:33:24.147Z,51.4
2023-04-23T08:39:12.152Z,54.9
2023-04-23T08:44:48.675Z,55.3
2023-04-23T08:50:24.876Z,54.9
2023-04-23T08:56:16.616Z,56.5
2023-04-23T09:01:53.194Z,58.1
2023-04-23T09:07:31.818Z,59.1
2023-04-23T09:13:25.621Z,59.8
2023-04-23T09:19:16.346Z,50.9
2023-04-23T09:24:52.152Z,52.9
2023-04-23T09:30:28.477Z,65
2023-04-23T09:36:20.798Z,63
2023-04-23T09:41:57.048Z,62.1
2023-04-23T09:47:48.993Z,62.8
2023-04-23T09:53:25.936Z,63.5
2023-04-23T09:59:19.455Z,61.9
2023-04-23T10:05:56.141Z,63.8
2023-04-23T10:13:11.938Z,64.5
2023-04-23T10:19:24.242Z,64.4
2023-04-23T10:25:26.713Z,64.9
2023-04-23T10:31:34.947Z,65.2
2023-04-23T10:37:56.341Z,66.6
2023-04-23T10:43:33.320Z,66
2023-04-23T10:49:35.740Z,66.4
2023-04-23T10:56:27.806Z,66.5
2023-04-23T11:02:19.120Z,67
2023-04-23T11:08:21.807Z,66
2023-04-23T11:14:16.178Z,65.8
2023-04-23T11:19:54.654Z,66.3
2023-04-23T11:25:45.949Z,66.3
2023-04-23T11:31:39.338Z,66.2
2023-04-23T11:37:39.132Z,66.8
2023-04-23T11:43:15.608Z,66.3
2023-04-23T11:48:37.072Z,65.9
2023-04-23T11:54:13.860Z,65.6
2023-04-23T12:00:07.314Z,66.8
2023-04-23T12:06:00.562Z,66.8
2023-04-23T12:12:01.008Z,66.7
2023-04-23T12:17:39.216Z,65.8
2023-04-23T12:23:30.760Z,65.9
2023-04-23T12:29:22.936Z,58.1
2023-04-23T12:35:15.038Z,55.2
2023-04-23T12:41:06.597Z,52.6
2023-04-23T12:46:58.230Z,50.4
2023-04-23T12:52:49.967Z,48.7
2023-04-23T12:58:42.012Z,46.9
2023-04-23T13:04:36.721Z,45.1
2023-04-23T13:10:28.200Z,43.7
2023-04-23T13:16:05.156Z,43.2
2023-04-23T13:21:59.450Z,43.1
2023-04-23T13:27:51.352Z,42.9
2023-04-23T13:33:27.956Z,46.6
2023-04-23T13:39:04.044Z,49.2
2023-04-23T13:45:09.633Z,53.1
2023-04-23T13:51:01.914Z,56.1
2023-04-23T14:02:59.684Z,56.4
2023-04-23T14:08:37.173Z,54.2
2023-04-23T14:14:14.097Z,51.7
2023-04-23T14:19:51.172Z,50.6
2023-04-23T14:25:45.818Z,50.6
2023-04-23T14:31:52.248Z,50.4
2023-04-23T14:37:58.856Z,48.6
2023-04-23T14:44:02.440Z,46.4
2023-04-23T14:49:54.456Z,43.9
2023-04-23T14:55:30.202Z,41.9
2023-04-23T15:01:23.936Z,40.1
2023-04-23T15:07:17.084Z,38.4
2023-04-23T15:13:08.599Z,36.6
2023-04-23T15:19:11.934Z,35.6
2023-04-23T15:25:03.963Z,34.4
2023-04-23T15:30:40.282Z,33.4
2023-04-23T15:36:33.927Z,32.3
2023-04-23T15:42:24.918Z,31.2
2023-04-23T15:48:16.520Z,30.3
2023-04-23T15:54:08.777Z,29.3
2023-04-23T16:00:01.077Z,28.4
2023-04-23T16:06:12.556Z,27.4
2023-04-23T16:12:05.052Z,26.4
2023-04-23T16:17:57.015Z,25.4
2023-04-23T16:23:49.836Z,24.6
2023-04-23T16:30:01.610Z,23.8
2023-04-23T16:35:54.664Z,22.9
2023-04-23T16:41:45.109Z,22.3
2023-04-23T16:47:37.978Z,21.6
2023-04-23T16:53:31.718Z,20.9
2023-04-23T16:59:24.730Z,20.3
2023-04-23T17:05:19.809Z,19.8
2023-04-23T17:11:12.961Z,19.1
2023-04-23T17:16:50.448Z,18.5
2023-04-23T17:22:27.856Z,17.9
2023-04-23T17:28:20.693Z,17.3
2023-04-23T17:34:14.468Z,16.6
2023-04-23T17:40:14.447Z,15.9
2023-04-23T17:46:07.620Z,15.4
2023-04-23T17:52:03.497Z,15
2023-04-23T17:57:44.463Z,14.6
2023-04-23T18:03:41.429Z,14.3
2023-04-23T18:09:22.735Z,14.1
2023-04-23T18:15:01.223Z,13.8
2023-04-23T18:20:41.333Z,13.5
2023-04-23T18:26:03.710Z,13.3
2023-04-23T18:31:41.755Z,13.1
2023-04-23T18:37:33.141Z,12.8
2023-04-23T18:44:04.459Z,12.6
2023-04-23T18:49:43.422Z,12.4
2023-04-23T18:55:24.528Z,12.3
2023-04-23T19:01:17.831Z,12.1
2023-04-23T19:07:38.558Z,11.9
2023-04-23T19:13:16.711Z,11.8
2023-04-23T19:18:54.226Z,11.6
2023-04-23T19:24:32.481Z,11.4
2023-04-23T19:30:26.085Z,11.3
2023-04-23T19:36:19.565Z,11.1
2023-04-23T19:41:42.407Z,11
2023-04-23T19:47:35.962Z,10.9
2023-04-23T19:52:58.080Z,10.8
2023-04-23T19:58:53.499Z,10.6
2023-04-23T20:04:32.975Z,10.5
2023-04-23T20:10:09.826Z,10.4
2023-04-23T20:15:49.785Z,10.3
2023-04-23T20:21:12.984Z,10.3
2023-04-23T20:26:50.169Z,10.1
2023-04-23T20:32:27.514Z,10
2023-04-23T20:38:04.674Z,9.9
2023-04-23T20:43:56.364Z,9.9
2023-04-23T20:49:32.714Z,9.8
2023-04-23T20:55:08.802Z,9.8
2023-04-23T21:00:59.985Z,9.7
2023-04-23T21:06:54.076Z,9.6
2023-04-23T21:12:45.719Z,9.5
2023-04-23T21:18:37.481Z,9.4
2023-04-23T21:24:28.942Z,9.4
2023-04-23T21:30:22.600Z,9.3
2023-04-23T21:35:58.991Z,9.3
2023-04-23T21:41:50.378Z,9.3
2023-04-23T21:47:42.738Z,9.3
2023-04-23T21:53:34.462Z,9.2
2023-04-23T21:59:42.154Z,9.1
2023-04-23T22:05:55.049Z,8.9
2023-04-23T22:11:51.936Z,8.7
2023-04-23T22:18:05.296Z,8.6
2023-04-23T22:23:56.637Z,8.4
2023-04-23T22:29:46.883Z,8.4
2023-04-23T22:35:23.739Z,8.4
2023-04-23T22:41:15.216Z,8.4
2023-04-23T22:46:52.982Z,8.6
2023-04-23T22:52:31.203Z,8.6
2023-04-23T22:57:51.936Z,8.8
2023-04-23T23:03:28.046Z,8.8
2023-04-23T23:08:49.196Z,8.9
2023-04-23T23:14:40.314Z,8.9
2023-04-23T23:20:16.519Z,8.9
2023-04-23T23:26:07.773Z,8.8
2023-04-23T23:31:59.277Z,8.7
2023-04-23T23:37:50.323Z,8.6
2023-04-23T23:43:44.287Z,8.4
2023-04-23T23:49:36.719Z,8.3
2023-04-23T23:55:12.622Z,8.2
